Time;durP1;ratioP1;P1;durP2;ratioP2;P2;SDS_P1;SDS_P2;PMS_P1;PMS_P2;Temp;Humidity;BMP_temperature;BMP_pressure;BME280_temperature;BME280_humidity;BME280_pressure;Samples;Min_cycle;Max_cycle;Signal;HPM_P1;HPM_P2
2021/09/25 00:02:02;;;;;;;1.00;0.10;;;;;;;10.66;80.16;98666.69;1705723;81;21089;-52
2021/09/25 00:04:28;;;;;;;0.10;0.10;;;;;;;10.63;80.27;98662.40;1713291;82;21615;-52
2021/09/25 00:06:55;;;;;;;1.20;0.15;;;;;;;10.63;80.33;98658.84;1713409;82;21491;-52
2021/09/25 00:09:21;;;;;;;0.93;0.10;;;;;;;10.58;80.28;98658.64;1708820;82;21109;-53
2021/09/25 00:11:47;;;;;;;1.05;0.10;;;;;;;10.57;80.42;98671.72;1709534;82;21512;-52
2021/09/25 00:14:14;;;;;;;0.60;0.10;;;;;;;10.59;80.44;98673.83;1708798;82;22281;-52
2021/09/25 00:16:40;;;;;;;0.57;0.10;;;;;;;10.60;80.44;98676.05;1708870;82;21592;-52
2021/09/25 00:19:06;;;;;;;0.57;0.20;;;;;;;10.62;80.40;98680.85;1708732;82;21097;-52
2021/09/25 00:21:32;;;;;;;0.47;0.10;;;;;;;10.61;80.26;98670.56;1708231;82;21070;-52
2021/09/25 00:23:59;;;;;;;0.40;0.10;;;;;;;10.61;80.15;98675.95;1722301;82;21148;-53
2021/09/25 00:26:27;;;;;;;1.65;0.10;;;;;;;10.59;80.01;98674.31;1724501;82;21061;-52
2021/09/25 00:28:54;;;;;;;1.25;0.10;;;;;;;10.57;79.96;98678.44;1731207;82;21712;-52
2021/09/25 00:31:21;;;;;;;0.40;0.10;;;;;;;10.58;79.92;98675.27;1726096;81;20895;-53
2021/09/25 00:33:47;;;;;;;2.12;0.20;;;;;;;10.58;79.92;98672.09;1726880;82;20890;-52
2021/09/25 00:36:13;;;;;;;3.50;0.30;;;;;;;10.58;79.84;98668.06;1729168;82;22356;-52
2021/09/25 00:38:40;;;;;;;0.42;0.23;;;;;;;10.61;79.82;98673.26;1724208;82;21038;-52
2021/09/25 00:41:06;;;;;;;0.78;0.30;;;;;;;10.64;79.68;98682.94;1724342;80;21121;-52
2021/09/25 00:43:33;;;;;;;1.30;0.10;;;;;;;10.63;79.59;98688.45;1723895;80;21140;-52
2021/09/25 00:45:59;;;;;;;0.37;0.10;;;;;;;10.60;79.48;98689.02;1727216;82;21072;-52
2021/09/25 00:48:25;;;;;;;0.20;0.10;;;;;;;10.59;79.47;98690.45;1721830;80;21793;-52
2021/09/25 00:50:52;;;;;;;0.70;0.20;;;;;;;10.56;79.45;98691.99;1726337;82;21653;-52
2021/09/25 00:53:18;;;;;;;2.30;0.10;;;;;;;10.55;79.48;98701.89;1725406;82;21092;-52
2021/09/25 00:55:44;;;;;;;2.05;0.10;;;;;;;10.55;79.52;98705.06;1725487;82;21014;-52
2021/09/25 00:58:10;;;;;;;2.77;0.20;;;;;;;10.56;79.57;98704.97;1721786;82;21069;-52
2021/09/25 01:00:37;;;;;;;1.70;0.20;;;;;;;10.57;79.49;98706.70;1728078;82;21793;-52
2021/09/25 01:03:03;;;;;;;0.30;0.10;;;;;;;10.58;79.45;98701.70;1726598;80;21014;-52
2021/09/25 01:05:29;;;;;;;0.47;0.20;;;;;;;10.61;79.36;98706.89;1723930;81;21543;-52
2021/09/25 01:07:56;;;;;;;1.02;0.20;;;;;;;10.63;79.32;98711.32;1725985;82;21446;-52
2021/09/25 01:10:23;;;;;;;0.30;0.20;;;;;;;10.64;79.29;98709.84;1725933;82;21502;-52
2021/09/25 01:12:49;;;;;;;0.50;0.15;;;;;;;10.64;79.20;98713.88;1730188;82;21634;-53
2021/09/25 01:15:15;;;;;;;0.37;0.10;;;;;;;10.66;79.15;98724.55;1721273;82;21101;-52
2021/09/25 01:17:42;;;;;;;1.37;0.20;;;;;;;10.66;79.08;98725.42;1719639;80;21085;-52
2021/09/25 01:20:09;;;;;;;2.17;0.20;;;;;;;10.65;79.03;98729.07;1721613;80;21100;-52
2021/09/25 01:22:36;;;;;;;1.90;0.10;;;;;;;10.65;79.00;98733.11;1726569;81;21002;-52
2021/09/25 01:25:05;;;;;;;0.20;0.10;;;;;;;10.68;78.94;98719.95;1715923;81;21078;-52
2021/09/25 01:27:31;;;;;;;1.70;0.25;;;;;;;10.70;78.88;98723.41;1713009;81;20974;-52
2021/09/25 01:29:58;;;;;;;0.55;0.10;;;;;;;10.72;78.79;98717.45;1714935;81;20946;-52
2021/09/25 01:32:24;;;;;;;3.50;0.20;;;;;;;10.73;78.74;98727.22;1710482;81;21297;-52
2021/09/25 01:34:50;;;;;;;0.30;0.10;;;;;;;10.75;78.65;98721.27;1717094;81;21397;-52
2021/09/25 01:37:16;;;;;;;0.80;0.13;;;;;;;10.75;78.61;98726.17;1708498;81;21077;-53
2021/09/25 01:39:43;;;;;;;0.70;0.20;;;;;;;10.74;78.54;98726.27;1709845;81;20916;-52
2021/09/25 01:42:12;;;;;;;0.60;0.20;;;;;;;10.74;78.51;98726.27;1709938;82;20896;-52
2021/09/25 01:44:38;;;;;;;2.33;0.13;;;;;;;10.73;78.47;98724.53;1713330;82;20935;-52
2021/09/25 01:47:05;;;;;;;0.80;0.20;;;;;;;10.74;78.49;98729.83;1715447;82;20931;-51
2021/09/25 01:49:31;;;;;;;0.30;0.10;;;;;;;10.74;78.42;98723.58;1710339;82;21175;-52
2021/09/25 01:51:57;;;;;;;0.40;0.13;;;;;;;10.75;78.43;98729.34;1712715;82;20935;-52
2021/09/25 01:54:23;;;;;;;0.70;0.10;;;;;;;10.74;78.44;98740.59;1712158;82;20923;-52
2021/09/25 01:56:50;;;;;;;1.77;0.10;;;;;;;10.75;78.35;98740.98;1711498;82;20907;-52
2021/09/25 01:59:16;;;;;;;1.45;0.13;;;;;;;10.74;78.35;98747.80;1713601;82;20978;-52
2021/09/25 02:01:43;;;;;;;0.47;0.10;;;;;;;10.73;78.38;98747.41;1712136;82;20911;-52
2021/09/25 02:04:09;;;;;;;0.30;0.10;;;;;;;10.71;78.34;98751.58;1710781;82;20967;-52
2021/09/25 02:06:35;;;;;;;0.45;0.10;;;;;;;10.69;78.33;98759.36;1715366;82;22048;-52
2021/09/25 02:09:02;;;;;;;2.10;0.20;;;;;;;10.69;78.40;98764.73;1714637;82;21465;-52
2021/09/25 02:11:28;;;;;;;0.40;0.10;;;;;;;10.69;78.41;98776.84;1708954;82;21050;-52
2021/09/25 02:13:54;;;;;;;1.20;0.10;;;;;;;10.68;78.37;98779.16;1714479;82;21073;-52
2021/09/25 02:16:20;;;;;;;0.23;0.13;;;;;;;10.65;78.46;98784.24;1710704;82;21070;-52
2021/09/25 02:18:47;;;;;;;0.45;0.20;;;;;;;10.66;78.51;98784.62;1714802;82;21098;-52
2021/09/25 02:21:13;;;;;;;1.05;0.20;;;;;;;10.68;78.45;98787.23;1709306;81;21054;-52
2021/09/25 02:23:39;;;;;;;1.37;0.10;;;;;;;10.66;78.45;98786.45;1713930;82;21122;-51
2021/09/25 02:26:06;;;;;;;1.15;0.10;;;;;;;10.66;78.46;98793.18;1723551;82;22544;-52
2021/09/25 02:28:33;;;;;;;0.25;0.10;;;;;;;10.63;78.44;98805.03;1727180;82;22018;-52
2021/09/25 02:30:59;;;;;;;4.12;0.20;;;;;;;10.59;78.57;98803.48;1722441;82;21539;-51
2021/09/25 02:33:25;;;;;;;2.00;0.20;;;;;;;10.59;78.67;98808.86;1724230;82;23153;-51
2021/09/25 02:37:28;;;;;;;0.67;0.10;;;;;;;10.63;78.76;98816.62;1771851;78;23406;-53
2021/09/25 02:39:55;;;;;;;0.55;0.13;;;;;;;10.59;78.81;98820.48;1740096;80;21156;-52
2021/09/25 02:42:21;;;;;;;0.37;0.10;;;;;;;10.63;78.78;98823.00;1737719;80;22478;-52
2021/09/25 02:44:47;;;;;;;1.47;0.20;;;;;;;10.61;78.78;98818.58;1734682;80;21017;-52
2021/09/25 02:47:13;;;;;;;0.90;0.20;;;;;;;10.61;78.81;98827.99;1740760;80;20970;-52
2021/09/25 02:49:40;;;;;;;0.75;0.20;;;;;;;10.63;78.81;98831.08;1740374;80;21340;-52
2021/09/25 02:52:06;;;;;;;1.57;0.28;;;;;;;10.61;78.79;98834.72;1741621;80;22298;-53
2021/09/25 02:54:32;;;;;;;0.50;0.17;;;;;;;10.61;78.81;98837.89;1739157;80;21129;-52
2021/09/25 02:56:59;;;;;;;0.53;0.20;;;;;;;10.63;78.77;98844.53;1702357;81;20934;-52
2021/09/25 02:59:25;;;;;;;1.60;0.20;;;;;;;10.63;78.76;98844.53;1690684;82;22276;-52
2021/09/25 03:01:51;;;;;;;0.75;0.20;;;;;;;10.63;78.71;98844.88;1699308;82;21797;-52
2021/09/25 03:04:18;;;;;;;4.47;1.05;;;;;;;10.65;78.61;98854.69;1700714;82;21140;-52
2021/09/25 03:06:44;;;;;;;2.10;0.17;;;;;;;10.63;78.57;98850.27;1700718;82;21695;-52
2021/09/25 03:09:10;;;;;;;0.50;0.20;;;;;;;10.62;78.56;98849.05;1705824;82;21046;-51
2021/09/25 03:11:37;;;;;;;0.95;0.20;;;;;;;10.64;78.55;98857.86;1699278;82;21089;-52
2021/09/25 03:14:03;;;;;;;1.50;0.10;;;;;;;10.63;78.52;98860.67;1701089;82;21093;-52
2021/09/25 03:16:29;;;;;;;1.82;0.30;;;;;;;10.61;78.52;98869.70;1703707;82;21173;-52
2021/09/25 03:18:56;;;;;;;0.95;0.10;;;;;;;10.61;78.53;98872.87;1698306;82;23354;-52
2021/09/25 03:21:22;;;;;;;0.95;0.23;;;;;;;10.60;78.51;98876.05;1699171;82;21072;-52
2021/09/25 03:23:48;;;;;;;0.75;0.23;;;;;;;10.61;78.50;98878.26;1698927;82;21415;-52
2021/09/25 03:26:14;;;;;;;3.40;0.20;;;;;;;10.61;78.44;98873.74;1701418;82;21447;-52
2021/09/25 03:28:41;;;;;;;2.60;0.23;;;;;;;10.61;78.37;98875.56;1702255;82;21698;-52
2021/09/25 03:31:07;;;;;;;1.47;0.20;;;;;;;10.59;78.37;98882.38;1700335;82;22210;-52
2021/09/25 03:33:33;;;;;;;0.57;0.15;;;;;;;10.58;78.41;98891.41;1691083;83;21347;-52
2021/09/25 03:36:00;;;;;;;1.87;0.10;;;;;;;10.59;78.39;98900.35;1686130;82;21488;-52
2021/09/25 03:38:27;;;;;;;2.00;0.20;;;;;;;10.60;78.40;98906.99;1680846;83;21005;-52
2021/09/25 03:40:54;;;;;;;0.70;0.20;;;;;;;10.63;78.34;98908.12;1678540;83;21092;-52
2021/09/25 03:43:20;;;;;;;2.52;0.28;;;;;;;10.67;78.30;98921.41;1672949;83;22662;-52
2021/09/25 03:45:46;;;;;;;0.40;0.20;;;;;;;10.67;78.27;98923.63;1677161;83;21254;-52
2021/09/25 03:48:13;;;;;;;1.05;0.20;;;;;;;10.68;78.07;98925.83;1681653;83;21084;-52
2021/09/25 03:50:39;;;;;;;1.17;0.10;;;;;;;10.67;78.09;98934.39;1675481;83;21192;-52
2021/09/25 03:53:05;;;;;;;2.42;0.20;;;;;;;10.65;78.08;98930.91;1673945;83;21077;-52
2021/09/25 03:55:32;;;;;;;1.30;0.20;;;;;;;10.63;78.13;98928.31;1675167;83;23219;-52
2021/09/25 03:57:58;;;;;;;1.50;0.10;;;;;;;10.64;78.10;98931.88;1677348;83;21205;-52
2021/09/25 04:00:24;;;;;;;0.88;0.10;;;;;;;10.65;78.11;98930.05;1677466;83;21400;-52
2021/09/25 04:02:52;;;;;;;2.92;0.30;;;;;;;10.66;78.08;98934.48;1673728;83;21723;-52
2021/09/25 04:05:19;;;;;;;1.37;0.15;;;;;;;10.69;78.06;98936.52;1707762;82;21646;-52
2021/09/25 04:07:46;;;;;;;0.65;0.20;;;;;;;10.71;78.10;98945.84;1706540;82;22252;-52
2021/09/25 04:10:12;;;;;;;0.90;0.20;;;;;;;10.72;78.03;98949.76;1712586;81;21754;-52
2021/09/25 04:12:39;;;;;;;1.85;0.20;;;;;;;10.72;77.98;98951.11;1718930;81;20868;-52
2021/09/25 04:15:06;;;;;;;1.30;0.20;;;;;;;10.72;77.87;98961.03;1719275;82;20982;-52
2021/09/25 04:17:33;;;;;;;0.47;0.20;;;;;;;10.73;77.84;98960.05;1718413;81;21409;-52
2021/09/25 04:19:59;;;;;;;0.53;0.20;;;;;;;10.73;77.84;98956.87;1717903;81;21239;-52
2021/09/25 04:22:25;;;;;;;1.57;0.20;;;;;;;10.75;77.81;98963.52;1717623;81;20930;-52
2021/09/25 04:24:51;;;;;;;1.02;0.20;;;;;;;10.76;77.85;98967.47;1718581;81;20892;-53
2021/09/25 04:27:17;;;;;;;1.02;0.20;;;;;;;10.78;77.77;98967.38;1717704;82;21656;-52
2021/09/25 04:29:44;;;;;;;0.72;0.20;;;;;;;10.80;77.64;98966.30;1714274;81;21282;-53
2021/09/25 04:32:10;;;;;;;1.12;0.20;;;;;;;10.79;77.59;98969.98;1716298;81;21393;-52
2021/09/25 04:34:36;;;;;;;2.00;0.15;;;;;;;10.80;77.52;98977.58;1720940;81;20966;-53
2021/09/25 04:37:03;;;;;;;1.32;0.10;;;;;;;10.79;77.43;98978.06;1729038;80;20989;-51
2021/09/25 04:39:29;;;;;;;0.37;0.20;;;;;;;10.79;77.48;98982.58;1733474;80;20958;-52
2021/09/25 04:41:56;;;;;;;0.82;0.30;;;;;;;10.82;77.49;98987.75;1733012;80;20974;-52
2021/09/25 04:46:08;;;;;;;1.07;0.20;;;;;;;10.92;77.39;98987.10;1791716;78;24420;-51
2021/09/25 04:48:35;;;;;;;0.57;0.20;;;;;;;10.90;77.34;98982.77;1771018;80;20985;-51
2021/09/25 04:51:01;;;;;;;1.35;0.57;;;;;;;10.92;77.18;98989.80;1768496;80;21107;-52
2021/09/25 04:53:30;;;;;;;0.55;0.20;;;;;;;10.94;77.06;98994.61;1772148;79;20938;-51
2021/09/25 04:55:55;;;;;;;0.40;0.15;;;;;;;10.94;77.01;99002.69;1770172;80;21498;-52
2021/09/25 04:58:27;;;;;;;0.30;0.10;;;;;;;10.93;76.92;99001.44;1772667;80;21085;-51
2021/09/25 05:00:50;;;;;;;1.22;0.20;;;;;;;10.94;76.92;99013.94;1771921;78;20937;-52
2021/09/25 05:03:16;;;;;;;0.60;0.20;;;;;;;10.95;76.96;99023.27;1733941;81;21792;-51
2021/09/25 05:05:42;;;;;;;0.80;0.10;;;;;;;10.98;76.82;99024.41;1736457;80;21050;-51
2021/09/25 05:08:08;;;;;;;0.85;0.20;;;;;;;10.99;76.71;99035.57;1733788;81;21073;-51
2021/09/25 05:10:35;;;;;;;1.25;0.20;;;;;;;11.00;76.61;99040.00;1739344;80;21064;-51
2021/09/25 05:13:01;;;;;;;0.95;0.20;;;;;;;11.02;76.44;99046.64;1736335;80;21367;-51
2021/09/25 05:15:27;;;;;;;1.42;0.20;;;;;;;11.03;76.33;99060.98;1737706;80;21543;-51
2021/09/25 05:17:55;;;;;;;1.22;0.20;;;;;;;11.00;76.17;99060.20;1707801;81;21091;-51
2021/09/25 05:20:21;;;;;;;0.47;0.20;;;;;;;10.98;76.03;99070.67;1712664;81;20994;-51
2021/09/25 05:22:47;;;;;;;0.35;0.15;;;;;;;10.94;76.00;99079.43;1714367;81;21121;-52
2021/09/25 05:25:13;;;;;;;1.25;0.10;;;;;;;10.94;75.92;99075.87;1706146;82;21108;-51
2021/09/25 05:27:40;;;;;;;0.75;0.10;;;;;;;10.93;75.85;99072.31;1738226;81;21068;-51
2021/09/25 05:30:08;;;;;;;0.33;0.20;;;;;;;10.94;75.81;99074.52;1707813;81;21081;-51
2021/09/25 05:32:34;;;;;;;1.20;0.20;;;;;;;10.92;75.78;99081.34;1721812;82;20948;-51
2021/09/25 05:35:01;;;;;;;0.50;0.10;;;;;;;10.92;75.75;99085.86;1715533;82;21129;-52
2021/09/25 05:37:27;;;;;;;0.17;0.10;;;;;;;10.90;75.59;99089.11;1719380;82;21073;-51
2021/09/25 05:39:56;;;;;;;1.17;0.20;;;;;;;10.88;75.65;99093.75;1718256;82;21068;-51
2021/09/25 05:42:24;;;;;;;3.27;0.20;;;;;;;10.88;75.66;99096.44;1706018;82;21146;-51
2021/09/25 05:44:50;;;;;;;0.30;0.10;;;;;;;10.90;75.64;99095.84;1685853;83;21667;-51
2021/09/25 05:47:17;;;;;;;0.30;0.17;;;;;;;10.93;75.61;99103.75;1656102;84;21139;-51
2021/09/25 05:49:46;;;;;;;0.28;0.20;;;;;;;10.95;75.56;99105.88;1713995;81;21042;-51
2021/09/25 05:52:12;;;;;;;1.00;0.20;;;;;;;10.97;75.50;99100.77;1713284;81;21089;-51
2021/09/25 05:54:38;;;;;;;0.35;0.20;;;;;;;10.96;75.40;99113.00;1709071;81;21100;-51
2021/09/25 05:57:08;;;;;;;0.40;0.30;;;;;;;10.95;75.42;99115.30;1714616;81;21109;-51
2021/09/25 05:59:34;;;;;;;0.30;0.20;;;;;;;10.94;75.31;99122.98;1716539;81;21490;-51
2021/09/25 06:02:01;;;;;;;0.57;0.20;;;;;;;10.90;75.33;99126.80;1714129;81;21291;-51
2021/09/25 06:04:27;;;;;;;0.42;0.20;;;;;;;10.88;75.36;99133.66;1717594;81;20930;-51
2021/09/25 06:06:53;;;;;;;0.50;0.20;;;;;;;10.88;75.41;99132.79;1715072;81;20998;-51
2021/09/25 06:09:20;;;;;;;2.83;0.23;;;;;;;10.91;75.45;99137.97;1721254;81;20935;-51
2021/09/25 06:11:46;;;;;;;1.87;0.30;;;;;;;10.92;75.44;99146.44;1720027;81;20939;-51
2021/09/25 06:14:12;;;;;;;2.35;0.20;;;;;;;10.93;75.24;99143.66;1718664;81;20922;-51
2021/09/25 06:16:39;;;;;;;0.45;0.20;;;;;;;10.94;75.23;99145.88;1719562;81;21122;-51
2021/09/25 06:19:05;;;;;;;0.55;0.20;;;;;;;10.95;75.30;99147.14;1720383;81;20883;-52
2021/09/25 06:21:31;;;;;;;0.80;0.30;;;;;;;10.96;75.26;99152.92;1718559;81;20927;-55
2021/09/25 06:23:58;;;;;;;0.35;0.20;;;;;;;10.98;75.22;99152.80;1721985;81;20994;-51
2021/09/25 06:26:24;;;;;;;1.72;0.20;;;;;;;10.97;74.90;99152.44;1716484;81;20982;-52
2021/09/25 06:28:50;;;;;;;2.27;0.20;;;;;;;10.97;74.91;99142.50;1713477;81;22637;-52
2021/09/25 06:31:19;;;;;;;0.30;0.13;;;;;;;10.98;74.87;99148.76;1715282;81;21612;-52
2021/09/25 06:33:47;;;;;;;1.22;0.20;;;;;;;11.00;74.77;99153.11;1719315;81;20938;-52
2021/09/25 06:36:14;;;;;;;0.85;0.20;;;;;;;11.03;74.84;99152.06;1712134;81;20970;-52
2021/09/25 06:38:40;;;;;;;0.50;0.20;;;;;;;11.10;74.73;99152.56;1712230;81;21058;-52
2021/09/25 06:41:06;;;;;;;0.75;0.20;;;;;;;11.16;74.74;99156.22;1709970;81;23306;-52
2021/09/25 06:43:34;;;;;;;2.30;0.20;;;;;;;11.20;74.71;99160.01;1715429;81;20899;-52
2021/09/25 06:46:01;;;;;;;2.87;0.17;;;;;;;11.24;74.61;99158.84;1750883;80;20962;-51
2021/09/25 06:48:27;;;;;;;0.30;0.10;;;;;;;11.27;74.52;99159.16;1760618;80;21049;-51
2021/09/25 06:50:54;;;;;;;1.12;0.20;;;;;;;11.32;74.59;99165.98;1757090;80;21128;-51
2021/09/25 06:53:20;;;;;;;1.17;0.30;;;;;;;11.40;74.64;99170.07;1759538;80;21093;-52
2021/09/25 06:55:47;;;;;;;0.45;0.20;;;;;;;11.47;74.52;99183.08;1760018;80;21066;-51
2021/09/25 06:58:14;;;;;;;0.70;0.23;;;;;;;11.54;74.45;99183.08;1762690;80;21087;-52
2021/09/25 07:00:47;;;;;;;0.98;0.30;;;;;;;11.62;74.44;99190.22;1761487;80;21083;-51
2021/09/25 07:03:09;;;;;;;2.15;0.30;;;;;;;11.67;74.29;99187.22;1765853;80;20887;-52
2021/09/25 07:05:35;;;;;;;0.40;0.20;;;;;;;11.71;74.35;99197.74;1762580;80;21158;-52
2021/09/25 07:08:02;;;;;;;3.22;0.30;;;;;;;11.74;74.16;99198.01;1764442;80;22578;-52
2021/09/25 07:10:29;;;;;;;3.22;0.30;;;;;;;11.79;74.19;99197.78;1760551;80;21219;-52
2021/09/25 07:12:55;;;;;;;0.55;0.23;;;;;;;11.79;74.19;99197.78;1764431;80;22076;-51
2021/09/25 07:15:22;;;;;;;1.45;0.40;;;;;;;11.82;74.04;99201.64;1759943;79;21432;-51
2021/09/25 07:17:48;;;;;;;0.75;0.28;;;;;;;11.84;73.95;99204.61;1762887;79;21113;-51
2021/09/25 07:20:17;;;;;;;1.70;0.30;;;;;;;11.85;73.85;99202.78;1758743;79;21116;-52
2021/09/25 07:22:46;;;;;;;1.62;0.40;;;;;;;11.86;74.00;99209.44;1760614;80;21069;-51
2021/09/25 07:25:13;;;;;;;1.90;0.30;;;;;;;11.86;74.00;99209.44;1762894;80;21023;-51
2021/09/25 07:27:40;;;;;;;3.52;0.30;;;;;;;11.88;73.95;99203.95;1765310;80;20935;-52
2021/09/25 07:30:08;;;;;;;1.55;0.20;;;;;;;11.94;73.72;99206.26;1765575;80;21110;-51
2021/09/25 07:32:34;;;;;;;0.90;0.30;;;;;;;11.94;73.72;99206.26;1765214;80;20895;-52
2021/09/25 07:35:01;;;;;;;2.42;0.40;;;;;;;11.99;73.87;99207.69;1765575;79;21690;-52
2021/09/25 07:37:27;;;;;;;1.02;0.20;;;;;;;12.07;73.88;99213.50;1765271;80;20897;-51
2021/09/25 07:39:53;;;;;;;1.45;0.30;;;;;;;12.16;73.86;99208.02;1768269;80;20942;-52
2021/09/25 07:42:23;;;;;;;2.47;0.30;;;;;;;12.28;73.81;99211.27;1761542;80;21095;-51
2021/09/25 07:44:49;;;;;;;0.82;0.20;;;;;;;12.38;73.50;99213.77;1760725;80;21053;-52
2021/09/25 07:47:16;;;;;;;0.62;0.20;;;;;;;12.49;73.24;99218.48;1733377;81;21516;-51
2021/09/25 07:49:43;;;;;;;3.12;0.40;;;;;;;12.54;73.11;99205.54;1730650;81;21119;-51
2021/09/25 07:52:09;;;;;;;1.72;0.30;;;;;;;12.59;72.82;99212.01;1730529;81;21526;-51
2021/09/25 07:54:35;;;;;;;1.85;0.30;;;;;;;12.60;72.51;99213.72;1730255;81;21168;-52
2021/09/25 07:57:02;;;;;;;1.22;0.30;;;;;;;12.63;72.36;99220.27;1730059;81;21049;-52
2021/09/25 07:59:28;;;;;;;0.95;0.30;;;;;;;12.65;72.10;99221.05;1730821;81;21565;-51
2021/09/25 08:01:54;;;;;;;2.50;0.20;;;;;;;12.66;72.08;99218.26;1730221;81;21525;-52
2021/09/25 08:04:20;;;;;;;0.80;0.33;;;;;;;12.70;72.04;99215.72;1734209;81;21374;-52
2021/09/25 08:06:47;;;;;;;1.52;0.35;;;;;;;12.73;71.84;99220.94;1730498;81;22185;-51
2021/09/25 08:09:13;;;;;;;7.40;0.33;;;;;;;12.78;71.78;99226.89;1732003;81;21407;-52
2021/09/25 08:11:39;;;;;;;1.25;0.30;;;;;;;12.80;71.58;99229.02;1732478;81;21096;-52
2021/09/25 08:14:06;;;;;;;5.27;0.43;;;;;;;12.83;71.41;99222.08;1730464;81;21108;-52
2021/09/25 08:16:32;;;;;;;0.60;0.20;;;;;;;12.87;71.32;99229.47;1729947;81;21159;-51
2021/09/25 08:18:58;;;;;;;0.78;0.20;;;;;;;12.92;71.31;99229.19;1730146;81;21687;-51
2021/09/25 08:21:25;;;;;;;2.12;0.30;;;;;;;12.97;71.32;99231.09;1732766;81;21400;-52
2021/09/25 08:23:52;;;;;;;2.75;0.30;;;;;;;13.03;71.29;99234.72;1736460;81;20890;-51
2021/09/25 08:26:18;;;;;;;1.10;0.30;;;;;;;13.07;71.13;99238.48;1735830;81;21423;-52
2021/09/25 08:28:44;;;;;;;1.12;0.30;;;;;;;13.13;70.87;99247.56;1732101;81;20965;-51
2021/09/25 08:31:10;;;;;;;2.35;0.20;;;;;;;13.17;70.67;99237.42;1729770;81;21104;-51
2021/09/25 08:33:37;;;;;;;2.12;0.30;;;;;;;13.19;70.44;99247.63;1730033;81;21044;-51
2021/09/25 08:36:04;;;;;;;0.60;0.20;;;;;;;13.22;70.54;99256.41;1730874;81;21080;-52
2021/09/25 08:38:30;;;;;;;1.00;0.30;;;;;;;13.23;70.46;99265.38;1728944;81;21076;-51
2021/09/25 08:40:58;;;;;;;0.60;0.20;;;;;;;13.23;70.14;99266.25;1729815;81;21606;-52
2021/09/25 08:43:26;;;;;;;4.60;0.30;;;;;;;13.25;69.78;99268.86;1737740;81;23084;-52
2021/09/25 08:46:02;;;;;;;2.20;0.30;;;;;;;13.24;69.43;99267.98;1738438;80;20896;-51
2021/09/25 08:48:29;;;;;;;0.70;0.20;;;;;;;13.28;69.26;99266.41;1766429;80;21463;-51
2021/09/25 08:50:56;;;;;;;1.85;0.30;;;;;;;13.31;69.20;99263.52;1770318;80;21202;-51
2021/09/25 08:53:22;;;;;;;0.33;0.20;;;;;;;13.34;69.25;99265.54;1766134;80;20943;-51
2021/09/25 08:55:49;;;;;;;0.65;0.20;;;;;;;13.39;69.36;99268.79;1764512;79;21750;-51
2021/09/25 08:58:15;;;;;;;1.00;0.20;;;;;;;13.47;69.44;99273.19;1766870;80;20923;-52
2021/09/25 09:00:47;;;;;;;3.40;0.20;;;;;;;13.53;69.22;99278.17;1766955;80;21365;-51
2021/09/25 09:03:28;;;;;;;0.65;0.30;;;;;;;13.57;69.38;99275.66;1767153;80;20938;-51
2021/09/25 09:06:18;;;;;;;0.85;0.30;;;;;;;13.63;69.45;99279.30;1765715;80;20957;-51
2021/09/25 09:08:47;;;;;;;1.65;0.30;;;;;;;13.71;69.44;99286.01;1722903;81;22452;-52
2021/09/25 09:11:14;;;;;;;1.52;0.30;;;;;;;13.79;69.01;99285.86;1724756;82;20904;-51
2021/09/25 09:13:42;;;;;;;3.05;0.30;;;;;;;13.85;68.91;99275.13;1739582;80;21034;-51
2021/09/25 09:16:11;;;;;;;3.12;0.30;;;;;;;13.89;68.46;99284.75;1769749;80;21452;-51
2021/09/25 09:18:40;;;;;;;2.17;0.30;;;;;;;13.90;68.22;99281.95;1767169;80;20910;-52
2021/09/25 09:21:17;;;;;;;2.77;0.33;;;;;;;13.91;67.91;99271.99;1765879;80;21085;-52
2021/09/25 09:24:06;;;;;;;0.57;0.25;;;;;;;13.93;67.87;99271.41;1765438;80;20907;-51
2021/09/25 09:26:36;;;;;;;2.47;0.30;;;;;;;13.94;67.99;99271.30;1767363;80;21303;-51
2021/09/25 09:29:05;;;;;;;1.10;0.20;;;;;;;13.99;67.96;99275.03;1769303;80;21417;-52
2021/09/25 09:31:31;;;;;;;0.93;0.20;;;;;;;14.04;67.52;99264.73;1764191;80;20983;-52
2021/09/25 09:33:59;;;;;;;3.00;0.30;;;;;;;14.08;67.25;99270.33;1763303;80;21294;-51
2021/09/25 09:36:35;;;;;;;6.42;0.47;;;;;;;14.10;67.02;99269.74;1767676;80;20953;-51
2021/09/25 09:39:15;;;;;;;2.37;0.30;;;;;;;14.12;66.95;99269.13;1763979;80;21036;-50
2021/09/25 09:41:44;;;;;;;0.57;0.20;;;;;;;14.12;66.89;99270.48;1754512;79;21077;-51
2021/09/25 09:44:31;;;;;;;1.00;0.25;;;;;;;14.12;66.92;99263.71;1760123;80;22599;-51
2021/09/25 09:47:01;;;;;;;0.82;0.20;;;;;;;14.13;66.87;99264.58;1767329;80;21084;-51
2021/09/25 09:49:30;;;;;;;0.50;0.20;;;;;;;14.11;66.73;99267.42;1764200;80;21337;-51
2021/09/25 09:52:09;;;;;;;2.52;0.20;;;;;;;14.13;67.04;99265.94;1762614;80;20955;-52
2021/09/25 09:54:39;;;;;;;2.12;0.20;;;;;;;14.15;67.19;99266.21;1762776;80;20946;-52
2021/09/25 09:57:17;;;;;;;1.07;0.20;;;;;;;14.19;67.32;99257.41;1762727;80;21433;-51
2021/09/25 09:59:45;;;;;;;0.62;0.28;;;;;;;14.22;67.24;99255.33;1760947;79;21032;-52
2021/09/25 10:02:12;;;;;;;1.02;0.30;;;;;;;14.27;66.83;99255.02;1757052;80;21094;-51
2021/09/25 10:04:38;;;;;;;4.50;0.30;;;;;;;14.29;66.79;99259.33;1759036;79;22455;-51
2021/09/25 10:07:06;;;;;;;0.50;0.20;;;;;;;14.32;66.93;99257.77;1759317;80;21634;-52
2021/09/25 10:09:37;;;;;;;0.78;0.28;;;;;;;14.36;66.82;99241.70;1762860;79;20923;-51
2021/09/25 10:12:07;;;;;;;0.60;0.20;;;;;;;14.42;65.87;99250.38;1762575;80;21108;-51
2021/09/25 10:14:36;;;;;;;0.78;0.20;;;;;;;14.44;65.25;99249.78;1762412;80;20946;-52
2021/09/25 10:17:05;;;;;;;3.27;0.30;;;;;;;14.46;65.14;99237.84;1765110;80;21638;-52
2021/09/25 10:19:32;;;;;;;0.57;0.20;;;;;;;14.48;64.50;99237.25;1759130;80;21539;-51
2021/09/25 10:22:19;;;;;;;1.37;0.15;;;;;;;14.52;64.74;99243.33;1758730;80;21296;-51
2021/09/25 10:24:53;;;;;;;1.15;0.30;;;;;;;14.54;64.17;99246.30;1758102;80;21115;-51
2021/09/25 10:27:20;;;;;;;1.35;0.40;;;;;;;14.61;64.31;99242.66;1761057;80;26695;-51
2021/09/25 10:29:51;;;;;;;1.32;0.30;;;;;;;14.67;64.20;99240.36;1759820;80;21673;-52
2021/09/25 10:32:26;;;;;;;1.22;0.30;;;;;;;14.74;64.20;99228.58;1760279;80;21160;-51
2021/09/25 10:35:14;;;;;;;0.98;0.30;;;;;;;14.83;64.30;99239.23;1765403;80;20994;-51
2021/09/25 10:37:50;;;;;;;2.02;0.28;;;;;;;14.92;63.87;99231.29;1761744;79;22323;-51
2021/09/25 10:40:27;;;;;;;0.98;0.30;;;;;;;14.99;63.90;99233.91;1757630;80;21548;-51
2021/09/25 10:43:17;;;;;;;1.00;0.20;;;;;;;15.09;63.88;99236.32;1757393;80;21053;-51
2021/09/25 10:45:44;;;;;;;1.45;0.28;;;;;;;15.19;63.29;99235.14;1762492;80;21093;-51
2021/09/25 10:48:23;;;;;;;0.80;0.33;;;;;;;15.24;62.62;99226.65;1762470;80;21083;-51
2021/09/25 10:51:08;;;;;;;1.67;0.30;;;;;;;15.28;62.52;99223.61;1764506;80;21839;-52
2021/09/25 10:53:38;;;;;;;1.95;0.30;;;;;;;15.32;62.31;99238.64;1765464;80;20921;-51
2021/09/25 10:56:06;;;;;;;2.42;0.30;;;;;;;15.35;61.56;99231.64;1761600;80;21100;-52
2021/09/25 10:58:35;;;;;;;3.30;0.30;;;;;;;15.37;60.89;99225.63;1768333;80;21772;-51
2021/09/25 11:01:12;;;;;;;0.70;0.30;;;;;;;15.37;61.05;99225.63;1725196;82;20998;-52
2021/09/25 11:04:04;;;;;;;2.58;0.30;;;;;;;15.37;60.96;99235.60;1696552;82;22323;-51
2021/09/25 11:06:43;;;;;;;5.05;0.40;;;;;;;15.37;60.91;99241.02;1721264;82;21072;-50
2021/09/25 11:09:29;;;;;;;1.57;0.50;;;;;;;15.33;60.72;99240.38;1700124;83;21533;-51
2021/09/25 11:11:59;;;;;;;0.70;0.33;;;;;;;15.30;60.42;99240.63;1683834;83;21784;-50
2021/09/25 11:14:34;;;;;;;1.27;0.30;;;;;;;15.27;60.30;99239.98;1699003;83;22375;-51
2021/09/25 11:17:10;;;;;;;1.20;0.40;;;;;;;15.26;60.42;99242.32;1704046;83;21461;-50
2021/09/25 11:19:56;;;;;;;3.75;0.40;;;;;;;15.24;60.42;99229.36;1702200;83;21136;-51
2021/09/25 11:22:44;;;;;;;1.72;0.40;;;;;;;15.24;60.74;99228.00;1706236;83;21051;-51
2021/09/25 11:25:15;;;;;;;2.05;0.45;;;;;;;15.27;60.76;99234.56;1681485;83;20984;-51
2021/09/25 11:27:45;;;;;;;2.05;0.40;;;;;;;15.25;61.05;99226.54;1703681;83;20991;-51
2021/09/25 11:30:27;;;;;;;3.87;0.65;;;;;;;15.30;61.37;99231.14;1708844;83;21104;-51
2021/09/25 11:32:56;;;;;;;2.30;0.57;;;;;;;15.32;61.56;99241.36;1702862;83;20934;-51
2021/09/25 11:35:35;;;;;;;2.37;0.40;;;;;;;15.38;61.61;99240.05;1703235;83;21056;-51
2021/09/25 11:38:13;;;;;;;3.70;0.50;;;;;;;15.42;61.37;99238.81;1705288;83;21443;-51
2021/09/25 11:40:47;;;;;;;2.42;0.85;;;;;;;15.45;61.16;99246.24;1706048;83;20978;-51
2021/09/25 11:43:16;;;;;;;3.12;0.50;;;;;;;15.47;60.94;99242.93;1706953;83;22134;-51